sensor_id;sensor_type;location;lat;lon;timestamp;pressure;altitude;pressure_sealevel;temperature;humidity
21988;BME280;11158;53.404;-1.510;2023-02-01T00:01:53;100877.03;;;8.97;55.59
21988;BME280;11158;53.404;-1.510;2023-02-01T00:04:20;100871.06;;;9.04;55.28
21988;BME280;11158;53.404;-1.510;2023-02-01T00:06:46;100860.53;;;8.94;55.71
21988;BME280;11158;53.404;-1.510;2023-02-01T00:09:12;100876.66;;;8.84;55.96
21988;BME280;11158;53.404;-1.510;2023-02-01T00:11:37;100875.13;;;8.73;56.39
21988;BME280;11158;53.404;-1.510;2023-02-01T00:14:04;100865.59;;;8.63;56.27
21988;BME280;11158;53.404;-1.510;2023-02-01T00:16:30;100879.03;;;8.95;55.59
21988;BME280;11158;53.404;-1.510;2023-02-01T00:19:02;100876.25;;;9.30;54.63
21988;BME280;11158;53.404;-1.510;2023-02-01T00:21:29;100880.13;;;8.42;57.30
21988;BME280;11158;53.404;-1.510;2023-02-01T00:23:54;100901.50;;;8.93;55.86
21988;BME280;11158;53.404;-1.510;2023-02-01T00:26:30;100910.44;;;9.18;55.58
21988;BME280;11158;53.404;-1.510;2023-02-01T00:28:57;100912.16;;;9.35;55.25
21988;BME280;11158;53.404;-1.510;2023-02-01T00:31:22;100910.34;;;9.69;54.03
21988;BME280;11158;53.404;-1.510;2023-02-01T00:33:48;100907.16;;;9.40;53.87
21988;BME280;11158;53.404;-1.510;2023-02-01T00:36:14;100905.31;;;9.41;53.97
21988;BME280;11158;53.404;-1.510;2023-02-01T00:38:40;100910.50;;;9.51;53.93
21988;BME280;11158;53.404;-1.510;2023-02-01T00:41:11;100911.44;;;9.25;53.79
21988;BME280;11158;53.404;-1.510;2023-02-01T00:43:38;100887.78;;;9.38;53.84
21988;BME280;11158;53.404;-1.510;2023-02-01T00:46:04;100888.97;;;9.69;52.38
21988;BME280;11158;53.404;-1.510;2023-02-01T00:48:30;100902.38;;;8.93;54.25
21988;BME280;11158;53.404;-1.510;2023-02-01T00:51:00;100905.72;;;9.04;54.37
21988;BME280;11158;53.404;-1.510;2023-02-01T00:53:26;100887.97;;;9.37;53.51
21988;BME280;11158;53.404;-1.510;2023-02-01T00:55:52;100885.06;;;9.06;54.02
21988;BME280;11158;53.404;-1.510;2023-02-01T00:58:18;100875.75;;;9.18;53.44
21988;BME280;11158;53.404;-1.510;2023-02-01T01:00:43;100886.97;;;9.71;52.48
21988;BME280;11158;53.404;-1.510;2023-02-01T01:03:09;100876.28;;;9.38;53.01
21988;BME280;11158;53.404;-1.510;2023-02-01T01:05:45;100876.47;;;9.61;52.46
21988;BME280;11158;53.404;-1.510;2023-02-01T01:08:12;100870.63;;;9.90;52.13
21988;BME280;11158;53.404;-1.510;2023-02-01T01:10:38;100872.81;;;9.70;52.27
21988;BME280;11158;53.404;-1.510;2023-02-01T01:13:03;100882.13;;;9.50;53.13
21988;BME280;11158;53.404;-1.510;2023-02-01T01:15:44;100870.94;;;9.21;53.89
21988;BME280;11158;53.404;-1.510;2023-02-01T01:18:13;100854.72;;;8.98;54.12
21988;BME280;11158;53.404;-1.510;2023-02-01T01:20:40;100848.75;;;9.13;53.19
21988;BME280;11158;53.404;-1.510;2023-02-01T01:23:07;100859.88;;;9.00;54.02
21988;BME280;11158;53.404;-1.510;2023-02-01T01:25:39;100864.47;;;9.32;53.70
21988;BME280;11158;53.404;-1.510;2023-02-01T01:28:05;100864.22;;;9.09;54.55
21988;BME280;11158;53.404;-1.510;2023-02-01T01:30:31;100863.38;;;8.50;56.13
21988;BME280;11158;53.404;-1.510;2023-02-01T01:32:57;100853.84;;;8.47;55.86
21988;BME280;11158;53.404;-1.510;2023-02-01T01:35:22;100866.19;;;8.91;55.28
21988;BME280;11158;53.404;-1.510;2023-02-01T01:37:48;100850.13;;;8.66;56.12
21988;BME280;11158;53.404;-1.510;2023-02-01T01:40:14;100855.25;;;8.68;56.17
21988;BME280;11158;53.404;-1.510;2023-02-01T01:42:41;100851.88;;;8.92;55.56
21988;BME280;11158;53.404;-1.510;2023-02-01T01:45:20;100838.88;;;8.97;55.56
21988;BME280;11158;53.404;-1.510;2023-02-01T01:47:54;100842.88;;;8.24;57.97
21988;BME280;11158;53.404;-1.510;2023-02-01T01:50:27;100835.16;;;8.39;57.04
21988;BME280;11158;53.404;-1.510;2023-02-01T01:52:56;100836.59;;;8.33;57.33
21988;BME280;11158;53.404;-1.510;2023-02-01T01:55:24;100816.19;;;8.42;56.95
21988;BME280;11158;53.404;-1.510;2023-02-01T01:57:58;100829.00;;;8.81;56.67
21988;BME280;11158;53.404;-1.510;2023-02-01T02:00:25;100828.03;;;8.90;56.26
21988;BME280;11158;53.404;-1.510;2023-02-01T02:02:57;100832.25;;;9.34;55.53
21988;BME280;11158;53.404;-1.510;2023-02-01T02:05:24;100821.72;;;8.99;55.93
21988;BME280;11158;53.404;-1.510;2023-02-01T02:07:53;100829.56;;;9.17;55.67
21988;BME280;11158;53.404;-1.510;2023-02-01T02:10:21;100817.38;;;8.98;56.35
21988;BME280;11158;53.404;-1.510;2023-02-01T02:13:07;100829.34;;;8.78;57.10
21988;BME280;11158;53.404;-1.510;2023-02-01T02:15:34;100821.00;;;8.81;56.99
21988;BME280;11158;53.404;-1.510;2023-02-01T02:18:15;100816.19;;;8.93;55.54
21988;BME280;11158;53.404;-1.510;2023-02-01T02:21:23;100815.88;;;9.04;55.46
21988;BME280;11158;53.404;-1.510;2023-02-01T02:29:03;100812.06;;;9.07;56.02
21988;BME280;11158;53.404;-1.510;2023-02-01T02:34:38;100807.75;;;9.47;54.40
21988;BME280;11158;53.404;-1.510;2023-02-01T02:37:15;100817.25;;;9.57;54.20
21988;BME280;11158;53.404;-1.510;2023-02-01T02:43:11;100805.16;;;8.79;56.62
21988;BME280;11158;53.404;-1.510;2023-02-01T02:49:04;100787.66;;;8.69;56.34
21988;BME280;11158;53.404;-1.510;2023-02-01T02:52:04;100785.38;;;8.90;56.10
21988;BME280;11158;53.404;-1.510;2023-02-01T02:54:48;100776.31;;;8.67;56.78
21988;BME280;11158;53.404;-1.510;2023-02-01T02:57:30;100799.00;;;8.79;57.40
21988;BME280;11158;53.404;-1.510;2023-02-01T03:00:17;100783.31;;;8.59;60.04
21988;BME280;11158;53.404;-1.510;2023-02-01T03:03:04;100773.63;;;8.50;61.24
21988;BME280;11158;53.404;-1.510;2023-02-01T03:05:49;100765.28;;;7.85;62.90
21988;BME280;11158;53.404;-1.510;2023-02-01T03:08:25;100752.13;;;8.17;61.42
21988;BME280;11158;53.404;-1.510;2023-02-01T03:13:28;100751.03;;;7.94;61.72
21988;BME280;11158;53.404;-1.510;2023-02-01T03:18:39;100760.25;;;8.08;61.30
21988;BME280;11158;53.404;-1.510;2023-02-01T03:21:15;100738.72;;;7.93;60.84
21988;BME280;11158;53.404;-1.510;2023-02-01T03:23:43;100736.38;;;7.90;60.96
21988;BME280;11158;53.404;-1.510;2023-02-01T03:26:13;100738.94;;;7.73;60.82
21988;BME280;11158;53.404;-1.510;2023-02-01T03:28:49;100741.22;;;7.94;60.28
21988;BME280;11158;53.404;-1.510;2023-02-01T03:31:18;100736.44;;;8.41;58.90
21988;BME280;11158;53.404;-1.510;2023-02-01T03:33:43;100722.34;;;8.22;59.25
21988;BME280;11158;53.404;-1.510;2023-02-01T03:41:53;100745.63;;;8.46;58.60
21988;BME280;11158;53.404;-1.510;2023-02-01T03:44:23;100740.50;;;8.27;59.01
21988;BME280;11158;53.404;-1.510;2023-02-01T03:47:08;100718.38;;;8.69;58.02
21988;BME280;11158;53.404;-1.510;2023-02-01T03:52:11;100742.00;;;8.72;57.56
21988;BME280;11158;53.404;-1.510;2023-02-01T03:54:38;100701.19;;;8.04;58.02
21988;BME280;11158;53.404;-1.510;2023-02-01T03:57:11;100725.34;;;8.70;56.53
21988;BME280;11158;53.404;-1.510;2023-02-01T03:59:42;100723.47;;;8.46;56.27
21988;BME280;11158;53.404;-1.510;2023-02-01T04:02:09;100725.88;;;8.31;57.59
21988;BME280;11158;53.404;-1.510;2023-02-01T04:04:35;100730.25;;;8.32;57.61
21988;BME280;11158;53.404;-1.510;2023-02-01T04:07:01;100718.91;;;8.38;57.03
21988;BME280;11158;53.404;-1.510;2023-02-01T04:09:27;100727.00;;;8.63;56.25
21988;BME280;11158;53.404;-1.510;2023-02-01T04:11:52;100718.50;;;8.51;56.08
21988;BME280;11158;53.404;-1.510;2023-02-01T04:14:18;100726.34;;;8.77;55.48
21988;BME280;11158;53.404;-1.510;2023-02-01T04:16:43;100713.78;;;8.36;56.84
21988;BME280;11158;53.404;-1.510;2023-02-01T04:19:09;100716.84;;;8.58;56.60
21988;BME280;11158;53.404;-1.510;2023-02-01T04:21:34;100705.72;;;9.04;56.36
21988;BME280;11158;53.404;-1.510;2023-02-01T04:24:00;100698.06;;;8.76;56.64
21988;BME280;11158;53.404;-1.510;2023-02-01T04:26:25;100688.84;;;8.54;57.21
21988;BME280;11158;53.404;-1.510;2023-02-01T04:28:51;100687.03;;;8.63;57.04
21988;BME280;11158;53.404;-1.510;2023-02-01T04:31:18;100682.66;;;7.94;58.29
21988;BME280;11158;53.404;-1.510;2023-02-01T04:33:55;100672.31;;;8.34;57.66
21988;BME280;11158;53.404;-1.510;2023-02-01T04:36:22;100679.41;;;8.17;57.01
21988;BME280;11158;53.404;-1.510;2023-02-01T04:38:51;100675.53;;;8.70;56.13
21988;BME280;11158;53.404;-1.510;2023-02-01T04:41:18;100666.91;;;8.09;58.00
21988;BME280;11158;53.404;-1.510;2023-02-01T04:43:48;100681.03;;;8.52;57.03
21988;BME280;11158;53.404;-1.510;2023-02-01T04:46:14;100690.72;;;8.78;56.38
21988;BME280;11158;53.404;-1.510;2023-02-01T04:48:40;100684.63;;;8.35;57.85
21988;BME280;11158;53.404;-1.510;2023-02-01T04:51:06;100664.09;;;7.68;59.07
21988;BME280;11158;53.404;-1.510;2023-02-01T04:53:32;100677.09;;;8.22;57.94
21988;BME280;11158;53.404;-1.510;2023-02-01T04:55:57;100687.72;;;8.14;58.69
21988;BME280;11158;53.404;-1.510;2023-02-01T04:58:23;100682.97;;;8.34;57.33
21988;BME280;11158;53.404;-1.510;2023-02-01T05:00:48;100688.34;;;8.00;58.75
21988;BME280;11158;53.404;-1.510;2023-02-01T05:03:15;100673.78;;;8.28;58.18
21988;BME280;11158;53.404;-1.510;2023-02-01T05:05:40;100684.25;;;8.13;58.43
21988;BME280;11158;53.404;-1.510;2023-02-01T05:08:06;100665.22;;;8.08;58.29
21988;BME280;11158;53.404;-1.510;2023-02-01T05:10:33;100705.09;;;8.34;57.89
21988;BME280;11158;53.404;-1.510;2023-02-01T05:12:59;100700.09;;;8.31;57.29
21988;BME280;11158;53.404;-1.510;2023-02-01T05:15:43;100691.75;;;8.26;58.13
21988;BME280;11158;53.404;-1.510;2023-02-01T05:18:08;100691.59;;;8.36;57.98
21988;BME280;11158;53.404;-1.510;2023-02-01T05:20:34;100693.25;;;8.21;58.42
21988;BME280;11158;53.404;-1.510;2023-02-01T05:22:59;100698.31;;;8.40;57.78
21988;BME280;11158;53.404;-1.510;2023-02-01T05:25:25;100716.25;;;8.38;58.24
21988;BME280;11158;53.404;-1.510;2023-02-01T05:27:51;100725.94;;;8.39;57.89
21988;BME280;11158;53.404;-1.510;2023-02-01T05:30:16;100708.56;;;8.27;57.50
21988;BME280;11158;53.404;-1.510;2023-02-01T05:32:42;100729.00;;;8.60;57.52
21988;BME280;11158;53.404;-1.510;2023-02-01T05:35:08;100722.25;;;8.32;57.88
21988;BME280;11158;53.404;-1.510;2023-02-01T05:37:33;100730.31;;;8.56;57.63
21988;BME280;11158;53.404;-1.510;2023-02-01T05:39:59;100725.69;;;8.75;56.98
21988;BME280;11158;53.404;-1.510;2023-02-01T05:42:25;100735.72;;;9.06;55.71
21988;BME280;11158;53.404;-1.510;2023-02-01T05:44:50;100730.63;;;8.45;57.08
21988;BME280;11158;53.404;-1.510;2023-02-01T05:47:16;100747.13;;;8.49;57.52
21988;BME280;11158;53.404;-1.510;2023-02-01T05:49:41;100750.88;;;8.97;56.02
21988;BME280;11158;53.404;-1.510;2023-02-01T05:52:07;100750.72;;;8.82;56.46
21988;BME280;11158;53.404;-1.510;2023-02-01T05:54:33;100739.88;;;8.84;56.72
21988;BME280;11158;53.404;-1.510;2023-02-01T05:57:02;100738.72;;;8.94;56.17
21988;BME280;11158;53.404;-1.510;2023-02-01T05:59:27;100716.38;;;8.71;56.67
21988;BME280;11158;53.404;-1.510;2023-02-01T06:01:53;100752.19;;;8.68;57.55
21988;BME280;11158;53.404;-1.510;2023-02-01T06:04:19;100750.50;;;8.59;57.94
21988;BME280;11158;53.404;-1.510;2023-02-01T06:06:44;100745.72;;;9.28;55.35
21988;BME280;11158;53.404;-1.510;2023-02-01T06:09:10;100749.22;;;9.12;55.77
21988;BME280;11158;53.404;-1.510;2023-02-01T06:11:35;100745.91;;;9.10;56.02
21988;BME280;11158;53.404;-1.510;2023-02-01T06:14:01;100745.22;;;9.00;56.47
21988;BME280;11158;53.404;-1.510;2023-02-01T06:16:27;100759.03;;;8.79;57.05
21988;BME280;11158;53.404;-1.510;2023-02-01T06:18:52;100728.72;;;8.80;57.14
21988;BME280;11158;53.404;-1.510;2023-02-01T06:21:19;100738.25;;;9.07;56.41
21988;BME280;11158;53.404;-1.510;2023-02-01T06:23:54;100724.72;;;8.76;57.48
21988;BME280;11158;53.404;-1.510;2023-02-01T06:26:20;100757.03;;;8.81;57.84
21988;BME280;11158;53.404;-1.510;2023-02-01T06:28:46;100733.91;;;9.14;56.04
21988;BME280;11158;53.404;-1.510;2023-02-01T06:31:11;100734.72;;;9.31;55.86
21988;BME280;11158;53.404;-1.510;2023-02-01T06:33:38;100752.91;;;9.19;55.95
21988;BME280;11158;53.404;-1.510;2023-02-01T06:36:06;100762.72;;;9.35;55.94
21988;BME280;11158;53.404;-1.510;2023-02-01T06:38:32;100771.56;;;9.11;56.72
21988;BME280;11158;53.404;-1.510;2023-02-01T06:41:02;100760.06;;;9.11;56.28
21988;BME280;11158;53.404;-1.510;2023-02-01T06:43:28;100766.88;;;9.54;55.77
21988;BME280;11158;53.404;-1.510;2023-02-01T06:46:03;100767.91;;;9.29;56.67
21988;BME280;11158;53.404;-1.510;2023-02-01T06:48:30;100765.38;;;9.60;56.00
21988;BME280;11158;53.404;-1.510;2023-02-01T06:50:55;100756.06;;;9.31;56.85
21988;BME280;11158;53.404;-1.510;2023-02-01T06:53:21;100748.56;;;9.51;56.24
21988;BME280;11158;53.404;-1.510;2023-02-01T06:55:58;100751.38;;;9.25;57.26
21988;BME280;11158;53.404;-1.510;2023-02-01T06:58:28;100756.00;;;8.74;59.87
21988;BME280;11158;53.404;-1.510;2023-02-01T07:00:54;100742.91;;;8.89;59.11
21988;BME280;11158;53.404;-1.510;2023-02-01T07:03:19;100743.69;;;8.81;58.96
21988;BME280;11158;53.404;-1.510;2023-02-01T07:05:45;100742.53;;;9.00;58.75
21988;BME280;11158;53.404;-1.510;2023-02-01T07:08:10;100732.41;;;9.04;58.50
21988;BME280;11158;53.404;-1.510;2023-02-01T07:10:36;100750.88;;;8.97;57.95
21988;BME280;11158;53.404;-1.510;2023-02-01T07:13:02;100723.38;;;9.13;57.68
21988;BME280;11158;53.404;-1.510;2023-02-01T07:15:28;100753.06;;;9.42;56.77
21988;BME280;11158;53.404;-1.510;2023-02-01T07:17:54;100759.06;;;9.20;57.75
21988;BME280;11158;53.404;-1.510;2023-02-01T07:20:20;100769.38;;;9.23;57.76
21988;BME280;11158;53.404;-1.510;2023-02-01T07:22:46;100756.91;;;9.40;57.94
21988;BME280;11158;53.404;-1.510;2023-02-01T07:25:12;100764.41;;;9.44;57.57
21988;BME280;11158;53.404;-1.510;2023-02-01T07:27:37;100763.66;;;9.83;56.90
21988;BME280;11158;53.404;-1.510;2023-02-01T07:30:04;100753.88;;;9.43;58.40
21988;BME280;11158;53.404;-1.510;2023-02-01T07:32:30;100756.06;;;9.15;59.07
21988;BME280;11158;53.404;-1.510;2023-02-01T07:34:56;100760.56;;;9.31;59.32
21988;BME280;11158;53.404;-1.510;2023-02-01T07:37:22;100749.69;;;8.83;61.64
21988;BME280;11158;53.404;-1.510;2023-02-01T07:39:50;100760.66;;;8.72;62.27
21988;BME280;11158;53.404;-1.510;2023-02-01T07:42:16;100754.38;;;8.89;62.15
21988;BME280;11158;53.404;-1.510;2023-02-01T07:44:42;100753.34;;;8.74;63.01
21988;BME280;11158;53.404;-1.510;2023-02-01T07:47:08;100718.34;;;8.52;63.48
21988;BME280;11158;53.404;-1.510;2023-02-01T07:49:33;100740.22;;;8.30;63.90
21988;BME280;11158;53.404;-1.510;2023-02-01T07:51:59;100744.22;;;8.34;62.98
21988;BME280;11158;53.404;-1.510;2023-02-01T07:54:24;100752.38;;;8.83;61.53
21988;BME280;11158;53.404;-1.510;2023-02-01T07:56:50;100753.84;;;8.27;62.76
21988;BME280;11158;53.404;-1.510;2023-02-01T07:59:15;100762.31;;;8.65;62.24
21988;BME280;11158;53.404;-1.510;2023-02-01T08:01:41;100765.34;;;8.35;62.68
21988;BME280;11158;53.404;-1.510;2023-02-01T08:04:10;100769.66;;;8.63;62.56
21988;BME280;11158;53.404;-1.510;2023-02-01T08:06:36;100766.16;;;8.62;63.02
21988;BME280;11158;53.404;-1.510;2023-02-01T08:09:02;100774.78;;;8.22;64.24
21988;BME280;11158;53.404;-1.510;2023-02-01T08:11:29;100765.81;;;8.65;62.62
21988;BME280;11158;53.404;-1.510;2023-02-01T08:13:55;100761.31;;;8.57;62.81
21988;BME280;11158;53.404;-1.510;2023-02-01T08:16:22;100763.16;;;8.23;63.22
21988;BME280;11158;53.404;-1.510;2023-02-01T08:18:49;100777.69;;;8.95;61.31
21988;BME280;11158;53.404;-1.510;2023-02-01T08:21:21;100788.06;;;9.31;59.81
21988;BME280;11158;53.404;-1.510;2023-02-01T08:23:47;100788.03;;;8.82;61.72
21988;BME280;11158;53.404;-1.510;2023-02-01T08:26:22;100783.72;;;8.89;61.70
21988;BME280;11158;53.404;-1.510;2023-02-01T08:28:54;100801.53;;;8.89;62.24
21988;BME280;11158;53.404;-1.510;2023-02-01T08:31:21;100789.41;;;9.35;61.31
21988;BME280;11158;53.404;-1.510;2023-02-01T08:33:50;100786.38;;;9.14;61.60
21988;BME280;11158;53.404;-1.510;2023-02-01T08:36:17;100778.69;;;8.86;62.67
21988;BME280;11158;53.404;-1.510;2023-02-01T08:38:42;100787.06;;;9.16;62.25
21988;BME280;11158;53.404;-1.510;2023-02-01T08:41:11;100779.06;;;9.08;62.21
21988;BME280;11158;53.404;-1.510;2023-02-01T08:43:37;100782.34;;;8.77;63.00
21988;BME280;11158;53.404;-1.510;2023-02-01T08:46:04;100771.00;;;8.67;63.36
21988;BME280;11158;53.404;-1.510;2023-02-01T08:48:30;100792.91;;;9.19;61.76
21988;BME280;11158;53.404;-1.510;2023-02-01T08:50:56;100782.16;;;8.70;62.08
21988;BME280;11158;53.404;-1.510;2023-02-01T08:53:22;100790.22;;;9.28;60.55
21988;BME280;11158;53.404;-1.510;2023-02-01T08:55:48;100782.06;;;9.54;59.69
21988;BME280;11158;53.404;-1.510;2023-02-01T08:58:14;100782.38;;;9.67;59.56
21988;BME280;11158;53.404;-1.510;2023-02-01T09:00:43;100766.19;;;9.85;58.74
21988;BME280;11158;53.404;-1.510;2023-02-01T09:03:11;100774.69;;;9.80;58.96
21988;BME280;11158;53.404;-1.510;2023-02-01T09:05:38;100800.25;;;9.58;59.02
21988;BME280;11158;53.404;-1.510;2023-02-01T09:08:04;100793.81;;;10.00;57.97
21988;BME280;11158;53.404;-1.510;2023-02-01T09:10:30;100799.81;;;10.11;57.67
21988;BME280;11158;53.404;-1.510;2023-02-01T09:12:56;100799.34;;;9.99;58.17
21988;BME280;11158;53.404;-1.510;2023-02-01T09:15:21;100791.50;;;10.53;56.52
21988;BME280;11158;53.404;-1.510;2023-02-01T09:17:47;100767.31;;;9.91;57.49
21988;BME280;11158;53.404;-1.510;2023-02-01T09:20:12;100776.47;;;9.96;58.15
21988;BME280;11158;53.404;-1.510;2023-02-01T09:22:39;100811.03;;;10.06;59.15
21988;BME280;11158;53.404;-1.510;2023-02-01T09:25:06;100788.16;;;9.87;59.19
21988;BME280;11158;53.404;-1.510;2023-02-01T09:27:32;100783.72;;;9.71;60.04
21988;BME280;11158;53.404;-1.510;2023-02-01T09:29:58;100791.75;;;9.71;59.77
21988;BME280;11158;53.404;-1.510;2023-02-01T09:32:24;100816.66;;;10.19;58.63
21988;BME280;11158;53.404;-1.510;2023-02-01T09:34:50;100814.38;;;9.92;59.34
21988;BME280;11158;53.404;-1.510;2023-02-01T09:37:16;100784.34;;;10.54;56.88
21988;BME280;11158;53.404;-1.510;2023-02-01T09:39:42;100792.84;;;10.01;58.68
21988;BME280;11158;53.404;-1.510;2023-02-01T09:44:56;100774.19;;;9.85;59.85
21988;BME280;11158;53.404;-1.510;2023-02-01T09:47:24;100775.59;;;10.12;59.65
21988;BME280;11158;53.404;-1.510;2023-02-01T09:50:14;100778.63;;;10.01;60.39
21988;BME280;11158;53.404;-1.510;2023-02-01T09:52:45;100779.34;;;9.95;60.20
21988;BME280;11158;53.404;-1.510;2023-02-01T09:58:29;100761.88;;;9.51;61.48
21988;BME280;11158;53.404;-1.510;2023-02-01T10:01:00;100764.38;;;9.69;61.18
21988;BME280;11158;53.404;-1.510;2023-02-01T10:03:30;100766.69;;;10.36;58.93
21988;BME280;11158;53.404;-1.510;2023-02-01T10:08:51;100791.91;;;10.25;58.35
21988;BME280;11158;53.404;-1.510;2023-02-01T10:22:58;100804.38;;;10.50;57.25
21988;BME280;11158;53.404;-1.510;2023-02-01T10:25:36;100798.47;;;10.94;56.34
21988;BME280;11158;53.404;-1.510;2023-02-01T10:28:03;100823.28;;;10.40;57.42
21988;BME280;11158;53.404;-1.510;2023-02-01T10:30:43;100821.31;;;11.04;55.77
21988;BME280;11158;53.404;-1.510;2023-02-01T10:35:38;100840.78;;;11.13;56.13
21988;BME280;11158;53.404;-1.510;2023-02-01T10:38:14;100854.81;;;11.61;54.95
21988;BME280;11158;53.404;-1.510;2023-02-01T10:40:42;100858.06;;;10.79;56.40
21988;BME280;11158;53.404;-1.510;2023-02-01T10:43:09;100855.97;;;11.21;56.17
21988;BME280;11158;53.404;-1.510;2023-02-01T10:45:37;100853.84;;;11.16;55.74
21988;BME280;11158;53.404;-1.510;2023-02-01T10:48:05;100868.22;;;11.38;55.88
21988;BME280;11158;53.404;-1.510;2023-02-01T10:50:36;100861.09;;;11.30;56.28
21988;BME280;11158;53.404;-1.510;2023-02-01T10:53:18;100858.25;;;11.32;56.17
21988;BME280;11158;53.404;-1.510;2023-02-01T10:58:26;100868.28;;;11.07;58.02
21988;BME280;11158;53.404;-1.510;2023-02-01T11:00:56;100878.38;;;11.20;58.71
21988;BME280;11158;53.404;-1.510;2023-02-01T11:08:52;100864.03;;;10.42;59.09
21988;BME280;11158;53.404;-1.510;2023-02-01T11:11:21;100888.25;;;10.88;58.40
21988;BME280;11158;53.404;-1.510;2023-02-01T11:14:12;100892.44;;;11.68;56.85
21988;BME280;11158;53.404;-1.510;2023-02-01T11:16:39;100884.66;;;11.58;56.46
21988;BME280;11158;53.404;-1.510;2023-02-01T11:19:05;100887.47;;;11.10;57.87
21988;BME280;11158;53.404;-1.510;2023-02-01T11:21:33;100891.44;;;11.23;57.39
21988;BME280;11158;53.404;-1.510;2023-02-01T11:24:04;100909.94;;;11.56;56.75
21988;BME280;11158;53.404;-1.510;2023-02-01T11:26:31;100900.81;;;11.19;57.95
21988;BME280;11158;53.404;-1.510;2023-02-01T11:29:04;100906.25;;;11.02;58.47
21988;BME280;11158;53.404;-1.510;2023-02-01T11:31:30;100891.03;;;10.63;59.25
21988;BME280;11158;53.404;-1.510;2023-02-01T11:34:05;100917.75;;;11.11;58.91
21988;BME280;11158;53.404;-1.510;2023-02-01T11:36:33;100916.03;;;10.79;59.41
21988;BME280;11158;53.404;-1.510;2023-02-01T11:41:42;100909.91;;;11.01;59.30
21988;BME280;11158;53.404;-1.510;2023-02-01T11:44:26;100909.53;;;11.13;58.92
21988;BME280;11158;53.404;-1.510;2023-02-01T11:46:54;100915.94;;;11.03;58.92
21988;BME280;11158;53.404;-1.510;2023-02-01T11:49:25;100912.56;;;11.64;57.14
21988;BME280;11158;53.404;-1.510;2023-02-01T11:54:44;100895.72;;;11.32;56.94
21988;BME280;11158;53.404;-1.510;2023-02-01T11:57:47;100902.47;;;11.43;56.78
21988;BME280;11158;53.404;-1.510;2023-02-01T12:12:21;100901.91;;;11.56;55.09
21988;BME280;11158;53.404;-1.510;2023-02-01T12:14:23;100937.16;;;11.90;54.81
21988;BME280;11158;53.404;-1.510;2023-02-01T12:25:13;100931.31;;;11.87;54.57
21988;BME280;11158;53.404;-1.510;2023-02-01T12:36:06;100925.09;;;11.63;57.47
21988;BME280;11158;53.404;-1.510;2023-02-01T12:41:12;100922.09;;;11.12;58.77
21988;BME280;11158;53.404;-1.510;2023-02-01T12:43:52;100919.09;;;12.07;56.68
21988;BME280;11158;53.404;-1.510;2023-02-01T12:46:28;100916.84;;;12.49;54.93
21988;BME280;11158;53.404;-1.510;2023-02-01T12:52:02;100916.16;;;12.17;56.37
21988;BME280;11158;53.404;-1.510;2023-02-01T12:57:17;100920.34;;;12.79;55.20
21988;BME280;11158;53.404;-1.510;2023-02-01T13:00:27;100935.91;;;12.16;56.77
21988;BME280;11158;53.404;-1.510;2023-02-01T13:05:57;100934.28;;;11.69;58.00
21988;BME280;11158;53.404;-1.510;2023-02-01T13:08:35;100936.44;;;11.97;56.99
21988;BME280;11158;53.404;-1.510;2023-02-01T13:11:37;100933.78;;;11.42;58.46
21988;BME280;11158;53.404;-1.510;2023-02-01T13:16:50;100938.53;;;11.32;59.00
21988;BME280;11158;53.404;-1.510;2023-02-01T13:19:26;100940.16;;;11.41;59.39
21988;BME280;11158;53.404;-1.510;2023-02-01T13:22:02;100938.72;;;11.53;59.46
21988;BME280;11158;53.404;-1.510;2023-02-01T13:24:37;100924.84;;;10.96;60.96
21988;BME280;11158;53.404;-1.510;2023-02-01T13:27:04;100922.50;;;11.55;59.88
21988;BME280;11158;53.404;-1.510;2023-02-01T13:29:31;100926.31;;;11.06;60.47
21988;BME280;11158;53.404;-1.510;2023-02-01T13:35:07;100935.91;;;10.93;61.35
21988;BME280;11158;53.404;-1.510;2023-02-01T13:40:44;100926.25;;;11.15;60.56
21988;BME280;11158;53.404;-1.510;2023-02-01T13:43:12;100923.75;;;11.90;57.58
21988;BME280;11158;53.404;-1.510;2023-02-01T13:45:48;100937.16;;;11.90;57.78
21988;BME280;11158;53.404;-1.510;2023-02-01T13:48:33;100929.03;;;11.52;57.87
21988;BME280;11158;53.404;-1.510;2023-02-01T13:51:01;100932.81;;;11.66;57.63
21988;BME280;11158;53.404;-1.510;2023-02-01T13:53:34;100934.19;;;11.77;56.51
21988;BME280;11158;53.404;-1.510;2023-02-01T13:56:07;100922.72;;;12.29;55.52
21988;BME280;11158;53.404;-1.510;2023-02-01T13:58:38;100928.56;;;11.72;56.91
21988;BME280;11158;53.404;-1.510;2023-02-01T14:03:58;100924.53;;;11.99;56.41
21988;BME280;11158;53.404;-1.510;2023-02-01T14:11:35;100931.75;;;12.13;55.32
21988;BME280;11158;53.404;-1.510;2023-02-01T14:19:27;100930.34;;;11.57;59.16
21988;BME280;11158;53.404;-1.510;2023-02-01T14:22:32;100939.97;;;11.11;61.00
21988;BME280;11158;53.404;-1.510;2023-02-01T14:24:49;100940.22;;;10.94;61.92
21988;BME280;11158;53.404;-1.510;2023-02-01T14:27:23;100949.94;;;11.26;61.00
21988;BME280;11158;53.404;-1.510;2023-02-01T14:29:52;100948.56;;;10.99;61.29
21988;BME280;11158;53.404;-1.510;2023-02-01T14:32:39;100948.25;;;10.85;62.17
21988;BME280;11158;53.404;-1.510;2023-02-01T14:35:19;100943.63;;;11.19;61.14
21988;BME280;11158;53.404;-1.510;2023-02-01T14:37:50;100941.81;;;11.42;60.30
21988;BME280;11158;53.404;-1.510;2023-02-01T14:40:23;100942.66;;;11.11;62.19
21988;BME280;11158;53.404;-1.510;2023-02-01T14:42:51;100948.78;;;10.89;61.83
21988;BME280;11158;53.404;-1.510;2023-02-01T15:00:59;100968.66;;;10.86;62.01
21988;BME280;11158;53.404;-1.510;2023-02-01T15:06:00;100972.94;;;11.04;61.39
21988;BME280;11158;53.404;-1.510;2023-02-01T15:08:31;100979.16;;;10.96;61.89
21988;BME280;11158;53.404;-1.510;2023-02-01T15:11:00;100984.75;;;11.18;61.00
21988;BME280;11158;53.404;-1.510;2023-02-01T15:13:29;100978.66;;;11.01;61.96
21988;BME280;11158;53.404;-1.510;2023-02-01T15:16:12;100981.47;;;10.99;61.98
21988;BME280;11158;53.404;-1.510;2023-02-01T15:18:39;100982.28;;;10.44;63.88
21988;BME280;11158;53.404;-1.510;2023-02-01T15:21:06;101011.34;;;10.63;63.70
21988;BME280;11158;53.404;-1.510;2023-02-01T15:23:32;101009.66;;;10.21;65.30
21988;BME280;11158;53.404;-1.510;2023-02-01T15:25:58;101000.19;;;10.43;64.06